Time;durP1;ratioP1;P1;durP2;ratioP2;P2;SDS_P1;SDS_P2;PMS_P1;PMS_P2;Temp;Humidity;BMP_temperature;BMP_pressure;BME280_temperature;BME280_humidity;BME280_pressure;Samples;Min_cycle;Max_cycle;Signal;HPM_P1;HPM_P2
2022/11/19 00:00:23;;;;;;;4.47;4.07;;;;;;;-145.14;100.00;70583.66;5054011;28;20313;-69
2022/11/19 00:02:53;;;;;;;4.70;3.93;;;;;;;-145.14;100.00;70583.66;5060073;28;20190;-69
2022/11/19 00:05:19;;;;;;;3.93;3.50;;;;;;;-145.14;100.00;70583.66;5052686;28;20225;-69
2022/11/19 00:07:44;;;;;;;4.13;3.60;;;;;;;-145.14;100.00;70583.66;5055483;28;20544;-70
2022/11/19 00:10:10;;;;;;;4.50;3.77;;;;;;;-145.14;100.00;70583.66;5056725;28;20532;-70
2022/11/19 00:12:54;;;;;;;4.63;3.80;;;;;;;-145.14;100.00;70583.66;5059894;28;20252;-70
2022/11/19 00:15:20;;;;;;;4.40;3.57;;;;;;;-145.14;100.00;70583.66;5054654;28;20290;-70
2022/11/19 00:17:45;;;;;;;5.00;4.17;;;;;;;-145.14;100.00;70583.66;5061747;28;20976;-70
2022/11/19 00:20:13;;;;;;;5.30;4.80;;;;;;;-145.14;100.00;70583.66;5056761;28;20442;-70
2022/11/19 00:22:40;;;;;;;4.40;4.00;;;;;;;-145.14;100.00;70583.66;5061442;28;20250;-70
2022/11/19 00:25:06;;;;;;;4.10;3.70;;;;;;;-145.14;100.00;70583.66;5060421;28;20526;-70
2022/11/19 00:27:32;;;;;;;5.30;4.63;;;;;;;-145.14;100.00;70583.66;5058457;28;21018;-70
2022/11/19 00:29:57;;;;;;;4.47;4.03;;;;;;;-145.14;100.00;70583.66;5061982;28;20457;-70
2022/11/19 00:32:23;;;;;;;5.17;4.20;;;;;;;-145.14;100.00;70583.66;5057609;28;20762;-70
2022/11/19 00:34:48;;;;;;;5.70;4.90;;;;;;;-145.14;100.00;70583.66;5059967;28;20331;-70
2022/11/19 00:37:14;;;;;;;4.60;4.17;;;;;;;-145.14;100.00;70583.66;5064302;28;20667;-70
2022/11/19 00:39:39;;;;;;;5.40;3.87;;;;;;;-145.14;100.00;70583.66;5065023;28;20198;-70
2022/11/19 00:42:05;;;;;;;4.33;3.93;;;;;;;-145.14;100.00;70583.66;5058494;28;20211;-70
2022/11/19 00:44:30;;;;;;;6.10;4.00;;;;;;;-145.14;100.00;70583.66;5058039;28;20674;-70
2022/11/19 00:46:56;;;;;;;4.70;3.93;;;;;;;-145.14;100.00;70583.66;5057836;28;20256;-69
2022/11/19 00:49:21;;;;;;;4.63;3.90;;;;;;;-145.14;100.00;70583.66;5058783;28;20614;-69
2022/11/19 00:51:47;;;;;;;4.13;3.83;;;;;;;-145.14;100.00;70583.66;5062556;28;20199;-70
2022/11/19 00:54:12;;;;;;;4.73;4.10;;;;;;;-145.14;100.00;70583.66;5062789;28;20608;-69
2022/11/19 00:56:38;;;;;;;5.33;4.70;;;;;;;-145.14;100.00;70583.66;5059002;28;20189;-69
2022/11/19 00:59:03;;;;;;;4.60;3.93;;;;;;;-145.14;100.00;70583.66;5056081;28;20715;-69
2022/11/19 01:01:29;;;;;;;5.00;4.50;;;;;;;-145.14;100.00;70583.66;5060474;28;20616;-69
2022/11/19 01:03:54;;;;;;;5.03;4.53;;;;;;;-145.14;100.00;70583.66;5059001;28;20214;-69
2022/11/19 01:06:22;;;;;;;5.07;4.30;;;;;;;-145.14;100.00;70583.66;5057478;28;20724;-69
2022/11/19 01:08:49;;;;;;;5.13;4.47;;;;;;;-145.14;100.00;70583.66;5059226;28;20214;-69
2022/11/19 01:11:21;;;;;;;4.30;3.90;;;;;;;-145.14;100.00;70583.66;5065609;28;21886;-69
2022/11/19 01:13:47;;;;;;;6.37;4.00;;;;;;;-145.14;100.00;70583.66;5060013;28;20813;-69
2022/11/19 01:16:21;;;;;;;5.87;4.50;;;;;;;-145.14;100.00;70583.66;5067344;28;20439;-69
2022/11/19 01:18:57;;;;;;;5.13;4.63;;;;;;;-145.14;100.00;70583.66;5060905;28;20840;-69
2022/11/19 01:21:26;;;;;;;5.10;4.53;;;;;;;-145.14;100.00;70583.66;5069476;28;20420;-69
2022/11/19 01:23:52;;;;;;;7.10;4.23;;;;;;;-145.14;100.00;70583.66;5066633;28;20441;-69
2022/11/19 01:26:19;;;;;;;5.13;4.30;;;;;;;-145.14;100.00;70583.66;5068459;28;20538;-69
2022/11/19 01:28:45;;;;;;;4.50;3.87;;;;;;;-145.14;100.00;70583.66;5062730;28;20591;-69
2022/11/19 01:31:19;;;;;;;6.10;4.00;;;;;;;-145.14;100.00;70583.66;5066346;28;20445;-69
2022/11/19 01:33:45;;;;;;;5.70;4.30;;;;;;;-145.14;100.00;70583.66;5064029;28;20824;-69
2022/11/19 01:36:14;;;;;;;4.00;3.60;;;;;;;-145.14;100.00;70583.66;5068873;28;20440;-69
2022/11/19 01:38:39;;;;;;;6.60;4.10;;;;;;;-145.14;100.00;70583.66;5062105;28;20582;-69
2022/11/19 01:41:06;;;;;;;5.90;4.80;;;;;;;-145.14;100.00;70583.66;5059385;28;21036;-69
2022/11/19 01:43:46;;;;;;;4.07;3.67;;;;;;;-145.14;100.00;70583.66;5062499;28;20930;-70
2022/11/19 01:46:15;;;;;;;4.23;3.83;;;;;;;-145.14;100.00;70583.66;5059268;28;20580;-69
2022/11/19 01:48:47;;;;;;;4.67;3.80;;;;;;;-145.14;100.00;70583.66;5059130;28;20468;-69
2022/11/19 01:51:20;;;;;;;4.43;3.60;;;;;;;-145.14;100.00;70583.66;5054010;28;20872;-69
2022/11/19 01:53:48;;;;;;;4.60;4.10;;;;;;;-145.14;100.00;70583.66;5053740;28;20457;-69
2022/11/19 01:56:16;;;;;;;5.90;4.20;;;;;;;-145.14;100.00;70583.66;5058749;28;21019;-69
2022/11/19 01:58:47;;;;;;;5.50;4.63;;;;;;;-145.14;100.00;70583.66;5059833;28;20490;-69
2022/11/19 02:01:16;;;;;;;4.90;4.40;;;;;;;-145.14;100.00;70583.66;5055456;28;20429;-69
2022/11/19 02:03:42;;;;;;;4.53;4.13;;;;;;;-145.14;100.00;70583.66;5056412;28;20468;-69
2022/11/19 02:06:08;;;;;;;5.30;4.80;;;;;;;-145.14;100.00;70583.66;5056733;28;20441;-69
2022/11/19 02:08:36;;;;;;;4.80;4.33;;;;;;;-145.14;100.00;70583.66;5047080;28;20474;-69
2022/11/19 02:11:11;;;;;;;5.00;4.10;;;;;;;-145.14;100.00;70583.66;5061352;28;21015;-69
2022/11/19 02:14:21;;;;;;;4.87;4.10;;;;;;;-145.14;100.00;70583.66;5060434;28;20467;-69
2022/11/19 02:17:02;;;;;;;5.63;4.40;;;;;;;-145.14;100.00;70583.66;5054446;28;20553;-67
2022/11/19 02:20:09;;;;;;;4.90;4.33;;;;;;;-145.14;100.00;70583.66;5057797;28;20463;-67
2022/11/19 02:23:07;;;;;;;4.57;4.17;;;;;;;-145.14;100.00;70583.66;5060492;28;20494;-67
2022/11/19 02:25:39;;;;;;;4.93;4.30;;;;;;;-145.14;100.00;70583.66;5058253;28;20454;-67
2022/11/19 02:28:14;;;;;;;5.27;4.77;;;;;;;-145.14;100.00;70583.66;5057196;28;20900;-67
2022/11/19 02:30:47;;;;;;;5.73;4.30;;;;;;;-145.14;100.00;70583.66;5062379;28;20452;-68
2022/11/19 02:33:18;;;;;;;4.43;4.03;;;;;;;-145.14;100.00;70583.66;5068010;28;20445;-69
2022/11/19 02:36:01;;;;;;;4.93;4.33;;;;;;;-145.14;100.00;70583.66;5061016;28;20441;-68
2022/11/19 02:38:45;;;;;;;4.93;4.40;;;;;;;-145.14;100.00;70583.66;5060963;28;20436;-68
2022/11/19 02:41:34;;;;;;;4.83;4.33;;;;;;;-145.14;100.00;70583.66;5053945;28;20476;-69
2022/11/19 02:47:13;;;;;;;5.83;5.20;;;;;;;-145.14;100.00;70583.66;5057676;28;20535;-68
2022/11/19 02:49:43;;;;;;;5.10;4.60;;;;;;;-145.14;100.00;70583.66;5050738;28;20434;-68
2022/11/19 02:52:10;;;;;;;5.07;4.57;;;;;;;-145.14;100.00;70583.66;5047379;28;20524;-68
2022/11/19 02:54:36;;;;;;;5.33;4.83;;;;;;;-145.14;100.00;70583.66;5048540;28;20938;-68
2022/11/19 02:57:02;;;;;;;6.70;4.60;;;;;;;-145.14;100.00;70583.66;5051398;28;20449;-67
2022/11/19 03:05:17;;;;;;;5.67;4.30;;;;;;;-145.14;100.00;70583.66;5058512;28;20472;-68
2022/11/19 03:07:43;;;;;;;4.67;4.03;;;;;;;-145.14;100.00;70583.66;5058081;28;20525;-68
2022/11/19 03:10:14;;;;;;;4.80;4.20;;;;;;;-145.14;100.00;70583.66;5060495;28;20445;-68
2022/11/19 03:16:40;;;;;;;5.33;4.80;;;;;;;-145.14;100.00;70583.66;5065341;28;20199;-68
2022/11/19 03:18:50;;;;;;;5.50;4.10;;;;;;;-145.14;100.00;70583.66;5064891;28;20420;-68
2022/11/19 03:21:34;;;;;;;5.20;4.60;;;;;;;-145.14;100.00;70583.66;5062518;28;20441;-68
2022/11/19 03:24:06;;;;;;;8.43;4.30;;;;;;;-145.14;100.00;70583.66;5059701;28;20461;-68
2022/11/19 03:26:41;;;;;;;5.10;4.60;;;;;;;-145.14;100.00;70583.66;5062806;28;20429;-68
2022/11/19 03:29:10;;;;;;;5.10;4.50;;;;;;;-145.14;100.00;70583.66;5065295;28;20452;-68
2022/11/19 03:31:39;;;;;;;5.33;4.83;;;;;;;-145.14;100.00;70583.66;5060319;28;20443;-68
2022/11/19 03:34:12;;;;;;;5.37;4.87;;;;;;;-145.14;100.00;70583.66;5066189;28;20451;-68
2022/11/19 03:36:40;;;;;;;5.20;4.70;;;;;;;-145.14;100.00;70583.66;5054017;28;20441;-68
2022/11/19 03:39:12;;;;;;;5.20;4.70;;;;;;;-145.14;100.00;70583.66;5054536;28;20455;-68
2022/11/19 03:41:41;;;;;;;6.00;4.67;;;;;;;-145.14;100.00;70583.66;5059687;28;20528;-68
2022/11/19 03:44:42;;;;;;;5.70;5.13;;;;;;;-145.14;100.00;70583.66;5056969;28;20535;-68
2022/11/19 03:47:14;;;;;;;5.30;4.80;;;;;;;-145.14;100.00;70583.66;5058213;28;20448;-68
2022/11/19 03:49:45;;;;;;;6.07;5.07;;;;;;;-145.14;100.00;70583.66;5058126;28;20471;-68
2022/11/19 03:52:13;;;;;;;5.87;5.10;;;;;;;-145.14;100.00;70583.66;5058839;28;20441;-68
2022/11/19 03:54:40;;;;;;;6.00;5.20;;;;;;;-145.14;100.00;70583.66;5055976;28;20469;-69
2022/11/19 03:57:09;;;;;;;5.20;4.70;;;;;;;-145.14;100.00;70583.66;5056689;28;20437;-68
2022/11/19 03:59:35;;;;;;;4.77;4.07;;;;;;;-145.14;100.00;70583.66;5062117;28;20555;-69
2022/11/19 04:02:06;;;;;;;5.73;4.27;;;;;;;-145.14;100.00;70583.66;5055162;28;20453;-68
2022/11/19 04:04:34;;;;;;;4.80;4.40;;;;;;;-145.14;100.00;70583.66;5048283;22;20250;-72
2022/11/19 04:07:00;;;;;;;5.83;4.50;;;;;;;-145.14;100.00;70583.66;5015515;28;20449;-73
2022/11/19 04:09:25;;;;;;;6.23;5.23;;;;;;;-145.14;100.00;70583.66;5018600;28;20830;-72
2022/11/19 04:11:50;;;;;;;5.07;4.33;;;;;;;-145.14;100.00;70583.66;5035691;28;20195;-72
2022/11/19 04:14:16;;;;;;;5.90;5.30;;;;;;;-145.14;100.00;70583.66;5035241;28;20215;-72
2022/11/19 04:16:41;;;;;;;5.60;4.40;;;;;;;-145.14;100.00;70583.66;5032308;28;20191;-72
2022/11/19 04:19:07;;;;;;;5.43;4.80;;;;;;;-145.14;100.00;70583.66;5037437;28;20223;-71
2022/11/19 04:21:32;;;;;;;6.90;4.83;;;;;;;-145.14;100.00;70583.66;5040084;28;20187;-72
2022/11/19 04:23:58;;;;;;;4.47;4.07;;;;;;;-145.14;100.00;70583.66;5042757;28;20288;-72
2022/11/19 04:26:23;;;;;;;7.40;5.10;;;;;;;-145.14;100.00;70583.66;5040320;28;20188;-72
2022/11/19 04:28:48;;;;;;;5.37;4.87;;;;;;;-145.14;100.00;70583.66;5041821;28;20207;-72
2022/11/19 04:31:14;;;;;;;6.07;5.27;;;;;;;-145.14;100.00;70583.66;5025115;28;20190;-72
2022/11/19 04:33:39;;;;;;;6.33;5.30;;;;;;;-145.14;100.00;70583.66;5046507;28;20175;-72
2022/11/19 04:36:05;;;;;;;5.20;4.67;;;;;;;-145.14;100.00;70583.66;5043085;28;20192;-72
2022/11/19 04:38:30;;;;;;;5.17;4.43;;;;;;;-145.14;100.00;70583.66;5044598;28;20187;-72
2022/11/19 04:40:56;;;;;;;4.90;4.30;;;;;;;-145.14;100.00;70583.66;5040475;28;20696;-72
2022/11/19 04:43:21;;;;;;;5.50;4.40;;;;;;;-145.14;100.00;70583.66;5047379;28;20186;-72
2022/11/19 04:45:47;;;;;;;4.97;4.23;;;;;;;-145.14;100.00;70583.66;5027784;28;20272;-72
2022/11/19 04:48:12;;;;;;;5.80;4.70;;;;;;;-145.14;100.00;70583.66;5044959;28;20204;-72
2022/11/19 04:50:41;;;;;;;5.53;5.03;;;;;;;-145.14;100.00;70583.66;5026098;28;20194;-72
2022/11/19 04:53:07;;;;;;;5.17;4.60;;;;;;;-145.14;100.00;70583.66;5039110;28;20184;-72
2022/11/19 04:55:32;;;;;;;5.73;4.83;;;;;;;-145.14;100.00;70583.66;5020566;28;21420;-72
2022/11/19 04:57:57;;;;;;;5.80;4.80;;;;;;;-145.14;100.00;70583.66;5045569;28;20190;-71
2022/11/19 05:00:23;;;;;;;6.90;4.57;;;;;;;-145.14;100.00;70583.66;5040067;28;20192;-71
2022/11/19 05:02:48;;;;;;;5.00;4.50;;;;;;;-145.14;100.00;70583.66;5044504;28;20190;-71
2022/11/19 05:05:14;;;;;;;5.27;4.67;;;;;;;-145.14;100.00;70583.66;5031846;28;20211;-71
2022/11/19 05:07:42;;;;;;;5.30;4.80;;;;;;;-145.14;100.00;70583.66;5027163;28;20239;-71
2022/11/19 05:10:08;;;;;;;5.20;4.70;;;;;;;-145.14;100.00;70583.66;5040041;28;26357;-72
2022/11/19 05:12:34;;;;;;;7.00;4.70;;;;;;;-145.14;100.00;70583.66;5041189;28;21008;-71
2022/11/19 05:14:59;;;;;;;5.33;4.57;;;;;;;-145.14;100.00;70583.66;5041030;28;20462;-71
2022/11/19 05:17:25;;;;;;;6.63;4.80;;;;;;;-145.14;100.00;70583.66;5034670;28;20222;-72
2022/11/19 05:19:50;;;;;;;5.77;4.97;;;;;;;-145.14;100.00;70583.66;5038616;28;20266;-71
2022/11/19 05:22:16;;;;;;;8.00;4.30;;;;;;;-145.14;100.00;70583.66;5023062;28;20556;-71
2022/11/19 05:24:41;;;;;;;5.47;4.57;;;;;;;-145.14;100.00;70583.66;5042896;28;20218;-72
2022/11/19 05:27:06;;;;;;;5.23;4.63;;;;;;;-145.14;100.00;70583.66;5023854;28;20465;-72
2022/11/19 05:29:32;;;;;;;5.87;4.50;;;;;;;-145.14;100.00;70583.66;5043973;28;20187;-71
2022/11/19 05:31:57;;;;;;;6.30;4.67;;;;;;;-145.14;100.00;70583.66;5043661;28;20192;-72
2022/11/19 05:34:23;;;;;;;5.30;4.40;;;;;;;-145.14;100.00;70583.66;5039917;28;20211;-71
2022/11/19 05:36:48;;;;;;;6.00;4.83;;;;;;;-145.14;100.00;70583.66;5038449;28;20292;-71
2022/11/19 05:39:13;;;;;;;4.93;4.43;;;;;;;-145.14;100.00;70583.66;5041672;28;20188;-71
2022/11/19 05:41:39;;;;;;;4.67;4.20;;;;;;;-145.14;100.00;70583.66;5044619;28;20184;-71
2022/11/19 05:44:04;;;;;;;5.10;4.50;;;;;;;-145.14;100.00;70583.66;5042867;28;20273;-71
2022/11/19 05:46:30;;;;;;;5.57;5.00;;;;;;;-145.14;100.00;70583.66;5039813;28;20210;-71
2022/11/19 05:48:55;;;;;;;5.10;4.27;;;;;;;-145.14;100.00;70583.66;5038878;28;20225;-71
2022/11/19 05:51:21;;;;;;;7.23;4.90;;;;;;;-145.14;100.00;70583.66;5044494;28;20603;-71
2022/11/19 05:53:46;;;;;;;7.00;5.60;;;;;;;-145.14;100.00;70583.66;5039795;28;20202;-72
2022/11/19 05:56:12;;;;;;;6.00;4.57;;;;;;;-145.14;100.00;70583.66;5038772;28;20211;-71
2022/11/19 05:58:37;;;;;;;4.50;4.10;;;;;;;-145.14;100.00;70583.66;5036760;28;20191;-71
2022/11/19 06:01:03;;;;;;;4.70;4.30;;;;;;;-145.14;100.00;70583.66;5036154;28;20220;-72
2022/11/19 06:03:29;;;;;;;4.80;4.30;;;;;;;-145.14;100.00;70583.66;5030010;28;20192;-72
2022/11/19 06:05:54;;;;;;;5.10;4.60;;;;;;;-145.14;100.00;70583.66;5038901;28;21048;-71
2022/11/19 06:08:20;;;;;;;5.83;4.80;;;;;;;-145.14;100.00;70583.66;5041430;28;20211;-71
2022/11/19 06:10:45;;;;;;;5.23;4.73;;;;;;;-145.14;100.00;70583.66;5037422;28;20608;-72
2022/11/19 06:13:11;;;;;;;6.83;4.90;;;;;;;-145.14;100.00;70583.66;5043388;28;20188;-71
2022/11/19 06:15:36;;;;;;;4.67;4.20;;;;;;;-145.14;100.00;70583.66;5036730;28;20676;-71
2022/11/19 06:18:04;;;;;;;5.00;4.50;;;;;;;-145.14;100.00;70583.66;5019915;28;20183;-71
2022/11/19 06:20:29;;;;;;;6.73;5.20;;;;;;;-145.14;100.00;70583.66;5037963;28;20196;-71
2022/11/19 06:22:55;;;;;;;5.07;4.27;;;;;;;-145.14;100.00;70583.66;5040734;28;20457;-71
2022/11/19 06:25:20;;;;;;;7.23;5.37;;;;;;;-145.14;100.00;70583.66;5041719;28;20207;-71
2022/11/19 06:27:46;;;;;;;5.00;4.50;;;;;;;-145.14;100.00;70583.66;5036862;28;20207;-71
2022/11/19 06:30:12;;;;;;;5.87;5.20;;;;;;;-145.14;100.00;70583.66;5023047;28;20196;-72
2022/11/19 06:32:38;;;;;;;5.63;5.00;;;;;;;-145.14;100.00;70583.66;5047257;28;20191;-71
2022/11/19 06:35:03;;;;;;;5.90;5.30;;;;;;;-145.14;100.00;70583.66;5046224;28;20458;-71
2022/11/19 06:37:29;;;;;;;6.03;5.40;;;;;;;-145.14;100.00;70583.66;5040962;28;20549;-71
2022/11/19 06:39:54;;;;;;;5.47;4.60;;;;;;;-145.14;100.00;70583.66;5042304;28;20286;-71
2022/11/19 06:42:36;;;;;;;5.87;5.30;;;;;;;-145.14;100.00;70583.66;5022217;28;20190;-71
2022/11/19 06:45:13;;;;;;;5.80;5.20;;;;;;;-145.14;100.00;70583.66;5018564;28;20207;-71
2022/11/19 06:47:40;;;;;;;5.37;4.87;;;;;;;-145.14;100.00;70583.66;5021310;28;20542;-71
2022/11/19 06:50:07;;;;;;;7.10;4.73;;;;;;;-145.14;100.00;70583.66;5036235;28;20537;-71
2022/11/19 06:52:33;;;;;;;4.90;4.50;;;;;;;-145.14;100.00;70583.66;5039991;28;20816;-71
2022/11/19 06:54:58;;;;;;;6.10;5.50;;;;;;;-145.14;100.00;70583.66;5012688;28;20990;-71
2022/11/19 06:57:24;;;;;;;5.20;4.70;;;;;;;-145.14;100.00;70583.66;5017949;28;20262;-71
2022/11/19 06:59:50;;;;;;;5.27;4.50;;;;;;;-145.14;100.00;70583.66;5036973;28;20657;-71
2022/11/19 07:02:15;;;;;;;5.30;4.80;;;;;;;-145.14;100.00;70583.66;5039435;28;20219;-71
2022/11/19 07:04:40;;;;;;;5.90;5.30;;;;;;;-145.14;100.00;70583.66;5036860;28;20307;-71
2022/11/19 07:07:08;;;;;;;5.17;4.57;;;;;;;-145.14;100.00;70583.66;5042712;28;20183;-71
2022/11/19 07:09:33;;;;;;;7.17;4.97;;;;;;;-145.14;100.00;70583.66;5040508;28;20187;-72
2022/11/19 07:11:59;;;;;;;5.53;4.53;;;;;;;-145.14;100.00;70583.66;5042465;28;20847;-70
2022/11/19 07:14:24;;;;;;;5.40;4.90;;;;;;;-145.14;100.00;70583.66;5043126;28;20255;-72
2022/11/19 07:16:50;;;;;;;6.63;5.00;;;;;;;-145.14;100.00;70583.66;5037572;28;20542;-71
2022/11/19 07:19:15;;;;;;;5.60;4.83;;;;;;;-145.14;100.00;70583.66;5043721;28;20555;-71
2022/11/19 07:21:40;;;;;;;5.60;5.10;;;;;;;-145.14;100.00;70583.66;5020773;28;20651;-71
2022/11/19 07:24:08;;;;;;;7.20;5.80;;;;;;;-145.14;100.00;70583.66;5039018;28;20207;-71
2022/11/19 07:26:35;;;;;;;7.30;6.07;;;;;;;-145.14;100.00;70583.66;5020768;28;20203;-72
2022/11/19 07:29:03;;;;;;;7.47;5.80;;;;;;;-145.14;100.00;70583.66;5015983;28;20997;-71
2022/11/19 07:31:32;;;;;;;6.60;5.77;;;;;;;-145.14;100.00;70583.66;5029276;28;20573;-71
2022/11/19 07:33:57;;;;;;;6.53;5.23;;;;;;;-145.14;100.00;70583.66;5016440;28;20465;-71
2022/11/19 07:36:23;;;;;;;7.10;5.80;;;;;;;-145.14;100.00;70583.66;5013702;28;20500;-71
2022/11/19 07:38:51;;;;;;;6.80;5.10;;;;;;;-145.14;100.00;70583.66;5029672;28;20242;-71
2022/11/19 07:44:00;;;;;;;9.80;7.23;;;;;;;-145.14;100.00;70583.66;5034143;28;20508;-71
2022/11/19 07:46:26;;;;;;;11.13;7.63;;;;;;;-145.14;100.00;70583.66;5039613;28;20446;-71
2022/11/19 07:48:53;;;;;;;10.97;7.90;;;;;;;-145.14;100.00;70583.66;5037472;28;20203;-71
2022/11/19 07:51:19;;;;;;;12.70;9.10;;;;;;;-145.14;100.00;70583.66;5017110;28;20184;-71
2022/11/19 07:53:44;;;;;;;10.33;7.80;;;;;;;-145.14;100.00;70583.66;5034391;28;20441;-71
2022/11/19 07:56:10;;;;;;;8.37;6.37;;;;;;;-145.14;100.00;70583.66;5035979;28;20485;-71
2022/11/19 07:58:35;;;;;;;7.33;5.30;;;;;;;-145.14;100.00;70583.66;5038318;28;20202;-71
2022/11/19 08:01:18;;;;;;;6.70;5.70;;;;;;;-145.14;100.00;70583.66;5037750;28;20306;-72
2022/11/19 08:03:45;;;;;;;6.60;5.20;;;;;;;-145.14;100.00;70583.66;5036870;28;20210;-71
2022/11/19 08:06:11;;;;;;;6.10;5.50;;;;;;;-145.14;100.00;70583.66;5030960;28;20446;-72
2022/11/19 08:08:37;;;;;;;5.50;5.00;;;;;;;-145.14;100.00;70583.66;5021093;28;23267;-71
2022/11/19 08:11:05;;;;;;;5.00;4.50;;;;;;;-145.14;100.00;70583.66;5034255;28;20964;-71
2022/11/19 08:13:31;;;;;;;5.20;4.60;;;;;;;-145.14;100.00;70583.66;5030038;28;20210;-71
2022/11/19 08:16:04;;;;;;;6.57;5.00;;;;;;;-145.14;100.00;70583.66;5032457;28;20449;-71
2022/11/19 08:18:30;;;;;;;5.60;4.63;;;;;;;-145.14;100.00;70583.66;5033980;28;21480;-71
2022/11/19 08:21:03;;;;;;;7.03;5.80;;;;;;;-145.14;100.00;70583.66;5040068;28;20448;-71
2022/11/19 08:23:28;;;;;;;6.90;5.60;;;;;;;-145.14;100.00;70583.66;5026993;28;20481;-71
2022/11/19 08:25:54;;;;;;;7.63;6.23;;;;;;;-145.14;100.00;70583.66;5032500;28;20958;-72
2022/11/19 08:28:19;;;;;;;6.20;5.37;;;;;;;-145.14;100.00;70583.66;5036638;28;20222;-71
2022/11/19 08:30:45;;;;;;;7.30;5.63;;;;;;;-145.14;100.00;70583.66;5022376;28;20199;-72
2022/11/19 08:33:11;;;;;;;9.03;5.13;;;;;;;-145.14;100.00;70583.66;5020325;28;20187;-71
2022/11/19 08:35:36;;;;;;;5.73;5.13;;;;;;;-145.14;100.00;70583.66;5034001;28;20874;-71
2022/11/19 08:38:02;;;;;;;5.03;4.53;;;;;;;-145.14;100.00;70583.66;5022810;28;20183;-71
2022/11/19 08:40:28;;;;;;;5.30;4.73;;;;;;;-145.14;100.00;70583.66;5035056;28;21546;-71
2022/11/19 08:42:59;;;;;;;6.07;5.47;;;;;;;-145.14;100.00;70583.66;5040136;28;21224;-71
2022/11/19 08:45:26;;;;;;;5.20;4.70;;;;;;;-145.14;100.00;70583.66;5031257;28;20704;-71
2022/11/19 08:47:53;;;;;;;5.20;4.70;;;;;;;-145.14;100.00;70583.66;5034375;28;20951;-70
2022/11/19 08:50:19;;;;;;;5.00;4.50;;;;;;;-145.14;100.00;70583.66;5017022;28;21002;-71
2022/11/19 08:52:45;;;;;;;5.87;4.57;;;;;;;-145.14;100.00;70583.66;5031815;28;21096;-71
2022/11/19 08:55:11;;;;;;;5.10;4.60;;;;;;;-145.14;100.00;70583.66;5019889;28;20615;-71
2022/11/19 08:57:37;;;;;;;6.10;4.43;;;;;;;-145.14;100.00;70583.66;5024180;28;20184;-70
2022/11/19 09:00:03;;;;;;;5.73;4.23;;;;;;;-145.14;100.00;70583.66;5018166;28;20441;-71
2022/11/19 09:02:28;;;;;;;5.43;4.93;;;;;;;-145.14;100.00;70583.66;5040472;28;20192;-71
2022/11/19 09:04:54;;;;;;;7.07;5.00;;;;;;;-145.14;100.00;70583.66;5036754;28;20211;-71
2022/11/19 09:07:19;;;;;;;6.00;4.83;;;;;;;-145.14;100.00;70583.66;5044332;28;20195;-71
2022/11/19 09:09:44;;;;;;;6.33;5.17;;;;;;;-145.14;100.00;70583.66;5018460;28;20195;-74
2022/11/19 09:12:10;;;;;;;5.57;4.70;;;;;;;-145.14;100.00;70583.66;5020933;28;20204;-71
2022/11/19 09:14:36;;;;;;;4.33;3.87;;;;;;;-145.14;100.00;70583.66;5026205;28;20212;-71
2022/11/19 09:17:01;;;;;;;4.93;4.43;;;;;;;-145.14;100.00;70583.66;5038585;28;20929;-72
2022/11/19 09:19:27;;;;;;;5.87;3.93;;;;;;;-145.14;100.00;70583.66;5039056;28;20258;-72
2022/11/19 09:21:52;;;;;;;5.07;4.13;;;;;;;-145.14;100.00;70583.66;5039365;28;20192;-73
2022/11/19 09:24:17;;;;;;;3.80;3.40;;;;;;;-145.14;100.00;70583.66;5042521;28;20234;-72
2022/11/19 09:26:43;;;;;;;5.63;4.53;;;;;;;-145.14;100.00;70583.66;5038856;28;20191;-71
2022/11/19 09:29:08;;;;;;;5.27;4.00;;;;;;;-145.14;100.00;70583.66;5038628;28;20218;-72
2022/11/19 09:31:34;;;;;;;5.00;4.23;;;;;;;-145.14;100.00;70583.66;5034349;28;20632;-71
2022/11/19 09:33:59;;;;;;;4.67;3.80;;;;;;;-145.14;100.00;70583.66;5040469;28;20295;-71
2022/11/19 09:36:25;;;;;;;5.40;4.10;;;;;;;-145.14;100.00;70583.66;5022631;28;20223;-72
2022/11/19 09:38:56;;;;;;;4.87;3.83;;;;;;;-145.14;100.00;70583.66;5039876;28;20298;-72
2022/11/19 09:41:39;;;;;;;3.97;3.57;;;;;;;-145.14;100.00;70583.66;5035671;28;20184;-71
2022/11/19 09:44:24;;;;;;;5.17;4.37;;;;;;;-145.14;100.00;70583.66;5036316;28;20518;-73
2022/11/19 09:47:00;;;;;;;3.80;3.30;;;;;;;-145.14;100.00;70583.66;5042114;28;20438;-71
2022/11/19 09:49:58;;;;;;;4.40;4.00;;;;;;;-145.14;100.00;70583.66;5014319;28;20573;-73
2022/11/19 09:52:27;;;;;;;5.47;3.90;;;;;;;-145.14;100.00;70583.66;5026027;28;20553;-76
2022/11/19 09:54:55;;;;;;;4.77;4.20;;;;;;;-145.14;100.00;70583.66;5023198;28;20541;-75
2022/11/19 09:57:31;;;;;;;3.70;3.40;;;;;;;-145.14;100.00;70583.66;5044056;28;20438;-76
2022/11/19 09:59:59;;;;;;;4.60;3.83;;;;;;;-145.14;100.00;70583.66;5037860;28;20438;-78
2022/11/19 10:02:25;;;;;;;4.70;3.77;;;;;;;-145.14;100.00;70583.66;5029183;28;20476;-73
2022/11/19 10:04:53;;;;;;;5.10;4.40;;;;;;;-145.14;100.00;70583.66;5049537;22;20698;-67
2022/11/19 10:07:33;;;;;;;5.23;4.20;;;;;;;-145.14;100.00;70583.66;5025177;28;20947;-68
2022/11/19 10:10:32;;;;;;;8.10;6.13;;;;;;;-145.14;100.00;70583.66;5038486;28;20509;-69
2022/11/19 10:14:02;;;;;;;4.50;4.00;;;;;;;-145.14;100.00;70583.66;5032585;28;20442;-68
2022/11/19 10:17:07;;;;;;;5.53;4.20;;;;;;;-145.14;100.00;70583.66;4975490;28;20452;-67
2022/11/19 10:19:54;;;;;;;5.63;4.40;;;;;;;-145.14;100.00;70583.66;4970375;28;20481;-67
2022/11/19 10:22:47;;;;;;;4.60;3.97;;;;;;;-145.14;100.00;70583.66;5014494;28;20445;-68
2022/11/19 10:25:17;;;;;;;5.03;4.03;;;;;;;-145.14;100.00;70583.66;5019236;28;20902;-67
2022/11/19 10:27:49;;;;;;;6.30;4.30;;;;;;;-145.14;100.00;70583.66;5027949;28;20546;-68
2022/11/19 10:30:20;;;;;;;5.47;4.30;;;;;;;-145.14;100.00;70583.66;5022280;28;20509;-69
2022/11/19 10:33:01;;;;;;;5.40;4.00;;;;;;;-145.14;100.00;70583.66;5029151;28;20899;-68
2022/11/19 10:35:32;;;;;;;8.83;5.03;;;;;;;-145.14;100.00;70583.66;5027083;28;20516;-70
2022/11/19 10:38:01;;;;;;;5.13;4.20;;;;;;;-145.14;100.00;70583.66;5023669;28;20445;-71
2022/11/19 10:40:53;;;;;;;5.83;4.43;;;;;;;-145.14;100.00;70583.66;5023892;28;20919;-71
2022/11/19 10:43:30;;;;;;;5.77;4.40;;;;;;;-145.14;100.00;70583.66;5019293;28;20859;-71
2022/11/19 10:45:59;;;;;;;5.00;4.13;;;;;;;-145.14;100.00;70583.66;5026465;28;20490;-71
2022/11/19 10:48:36;;;;;;;5.07;3.70;;;;;;;-145.14;100.00;70583.66;5026124;28;20470;-70
2022/11/19 10:51:14;;;;;;;5.13;4.03;;;;;;;-145.14;100.00;70583.66;5025615;28;20958;-70
2022/11/19 10:53:41;;;;;;;8.03;6.07;;;;;;;-145.14;100.00;70583.66;5029131;28;20506;-70
2022/11/19 10:56:23;;;;;;;5.67;4.40;;;;;;;-145.14;100.00;70583.66;5043375;28;20485;-71
2022/11/19 10:58:56;;;;;;;4.67;4.17;;;;;;;-145.14;100.00;70583.66;5021486;28;20438;-71
2022/11/19 11:01:32;;;;;;;5.47;4.40;;;;;;;-145.14;100.00;70583.66;5028555;28;20419;-72
2022/11/19 11:04:10;;;;;;;4.50;4.00;;;;;;;-145.14;100.00;70583.66;5025799;28;21018;-71
2022/11/19 11:06:56;;;;;;;6.90;5.30;;;;;;;-145.14;100.00;70583.66;5028519;28;20434;-71
2022/11/19 11:09:39;;;;;;;5.70;4.33;;;;;;;-145.14;100.00;70583.66;5026305;28;20554;-71
2022/11/19 11:15:22;;;;;;;3.90;3.50;;;;;;;-145.14;100.00;70583.66;5025431;28;20453;-69
2022/11/19 11:18:01;;;;;;;3.80;3.23;;;;;;;-145.14;100.00;70583.66;5026776;28;20533;-70
2022/11/19 11:20:27;;;;;;;5.70;4.50;;;;;;;-145.14;100.00;70583.66;5043977;28;20430;-70
2022/11/19 11:23:14;;;;;;;4.70;3.97;;;;;;;-145.14;100.00;70583.66;5040864;28;20445;-70
2022/11/19 11:25:49;;;;;;;4.07;3.67;;;;;;;-145.14;100.00;70583.66;5026526;28;20451;-71
2022/11/19 11:28:30;;;;;;;4.73;3.83;;;;;;;-145.14;100.00;70583.66;5024569;28;20531;-71
2022/11/19 11:31:04;;;;;;;3.93;3.53;;;;;;;-145.14;100.00;70583.66;5024022;28;20494;-70
2022/11/19 11:33:40;;;;;;;4.43;4.00;;;;;;;-145.14;100.00;70583.66;5039844;28;20898;-70
2022/11/19 11:36:10;;;;;;;8.37;3.80;;;;;;;-145.14;100.00;70583.66;5016561;28;20527;-69
2022/11/19 11:38:45;;;;;;;6.60;5.17;;;;;;;-145.14;100.00;70583.66;5023229;28;21097;-67